Time;durP1;ratioP1;P1;durP2;ratioP2;P2;SDS_P1;SDS_P2;PMS_P1;PMS_P2;Temp;Humidity;BMP_temperature;BMP_pressure;BME280_temperature;BME280_humidity;BME280_pressure;Samples;Min_cycle;Max_cycle;Signal;HPM_P1;HPM_P2
2023/06/08 00:00:23;;;;;;;0.10;0.10;;;;;;;20.24;53.22;102092.94;5060387;28;20055;-67
2023/06/08 00:02:49;;;;;;;0.10;0.10;;;;;;;20.06;52.60;102099.56;5056132;28;20033;-67
2023/06/08 00:05:16;;;;;;;0.10;0.10;;;;;;;20.33;52.40;102098.75;5059607;28;20063;-67
2023/06/08 00:07:42;;;;;;;0.17;0.17;;;;;;;19.94;53.95;102098.06;5057676;28;20489;-67
2023/06/08 00:10:09;;;;;;;0.13;0.13;;;;;;;20.10;53.64;102092.50;5049831;28;20021;-67
2023/06/08 00:12:34;;;;;;;0.10;0.10;;;;;;;20.26;53.12;102093.50;5049390;28;20025;-67
2023/06/08 00:15:00;;;;;;;0.10;0.10;;;;;;;19.77;53.93;102089.94;5049237;28;20047;-67
2023/06/08 00:17:27;;;;;;;0.20;0.20;;;;;;;19.17;56.07;102090.00;5049296;28;20750;-67
2023/06/08 00:19:52;;;;;;;0.10;0.10;;;;;;;19.48;55.15;102090.44;5049411;28;20025;-67
2023/06/08 00:22:21;;;;;;;0.10;0.10;;;;;;;19.99;53.23;102085.28;5050064;28;20029;-67
2023/06/08 00:24:46;;;;;;;0.10;0.10;;;;;;;20.33;52.07;102083.19;5049282;28;20072;-67
2023/06/08 00:27:12;;;;;;;0.10;0.10;;;;;;;19.87;53.83;102079.16;5049211;28;20488;-67
2023/06/08 00:29:38;;;;;;;0.13;0.13;;;;;;;19.52;55.29;102083.41;5049108;28;20103;-67
2023/06/08 00:32:04;;;;;;;0.10;0.10;;;;;;;19.00;56.34;102083.75;5049310;28;20037;-67
2023/06/08 00:34:30;;;;;;;0.10;0.10;;;;;;;18.50;58.09;102085.69;5049250;28;20033;-67
2023/06/08 00:36:55;;;;;;;0.10;0.10;;;;;;;19.59;55.44;102078.56;5049698;28;20021;-67
2023/06/08 00:39:21;;;;;;;0.20;0.20;;;;;;;19.65;54.75;102077.53;5049266;28;20037;-67
2023/06/08 00:41:46;;;;;;;0.10;0.10;;;;;;;20.17;52.91;102073.19;5050504;28;20086;-67
2023/06/08 00:44:12;;;;;;;0.10;0.10;;;;;;;20.00;53.65;102080.66;5050975;28;20029;-67
2023/06/08 00:46:38;;;;;;;0.10;0.10;;;;;;;20.28;52.98;102074.97;5053117;28;20433;-67
2023/06/08 00:49:07;;;;;;;0.10;0.10;;;;;;;20.33;52.23;102072.28;5053855;28;20083;-67
2023/06/08 00:51:40;;;;;;;0.20;0.20;;;;;;;19.72;54.39;102072.69;5057680;28;20036;-67
2023/06/08 00:54:06;;;;;;;0.10;0.10;;;;;;;20.17;53.15;102070.44;5041541;28;20405;-67
2023/06/08 00:56:33;;;;;;;0.10;0.10;;;;;;;19.02;56.10;102068.00;5042690;28;20052;-67
2023/06/08 00:59:01;;;;;;;0.10;0.10;;;;;;;19.58;54.97;102061.38;5053281;28;20036;-67
2023/06/08 01:01:35;;;;;;;0.20;0.20;;;;;;;19.52;55.38;102062.38;5052963;28;20591;-67
2023/06/08 01:04:08;;;;;;;0.17;0.17;;;;;;;19.54;54.71;102057.50;5053463;28;20020;-67
2023/06/08 01:06:39;;;;;;;0.10;0.10;;;;;;;19.80;53.79;102062.19;5052710;28;20083;-67
2023/06/08 01:09:22;;;;;;;0.10;0.10;;;;;;;20.22;52.99;102064.25;5052981;28;20102;-67
2023/06/08 01:12:06;;;;;;;0.10;0.10;;;;;;;19.36;55.45;102065.19;5053293;28;20099;-67
2023/06/08 01:14:45;;;;;;;0.10;0.10;;;;;;;19.86;54.13;102057.59;5053000;28;20033;-67
2023/06/08 01:17:15;;;;;;;0.10;0.10;;;;;;;20.05;53.10;102059.69;5052905;28;20477;-67
2023/06/08 01:20:09;;;;;;;0.10;0.10;;;;;;;20.48;52.45;102058.72;5053047;28;20091;-67
2023/06/08 01:22:37;;;;;;;0.10;0.10;;;;;;;20.21;52.99;102060.69;5052375;28;20028;-67
2023/06/08 01:25:04;;;;;;;0.10;0.10;;;;;;;19.63;54.89;102056.00;5053162;28;20052;-67
2023/06/08 01:27:36;;;;;;;0.10;0.10;;;;;;;20.38;52.63;102049.66;5052720;28;20505;-67
2023/06/08 01:30:03;;;;;;;0.10;0.10;;;;;;;19.72;54.13;102053.63;5052397;28;20174;-67
2023/06/08 01:32:29;;;;;;;0.10;0.10;;;;;;;20.10;52.85;102054.31;5052514;28;20029;-67
2023/06/08 01:34:54;;;;;;;0.10;0.10;;;;;;;19.40;54.73;102055.44;5052602;28;20052;-67
2023/06/08 01:37:36;;;;;;;0.10;0.10;;;;;;;20.17;52.72;102058.72;5052680;28;20052;-67
2023/06/08 01:40:23;;;;;;;0.10;0.10;;;;;;;19.88;54.40;102056.25;5032557;28;20045;-67
2023/06/08 01:42:51;;;;;;;0.10;0.10;;;;;;;19.19;56.35;102065.22;5047838;28;20428;-67
2023/06/08 01:45:20;;;;;;;0.10;0.10;;;;;;;18.98;57.09;102061.41;5052418;28;20508;-66
2023/06/08 01:47:51;;;;;;;0.10;0.10;;;;;;;19.42;55.38;102059.53;5052408;28;20040;-67
2023/06/08 01:50:18;;;;;;;0.10;0.10;;;;;;;20.12;53.17;102056.78;5052924;28;20029;-67
2023/06/08 01:52:44;;;;;;;0.10;0.10;;;;;;;19.92;53.13;102051.09;5051423;28;20033;-67
2023/06/08 01:55:16;;;;;;;0.10;0.10;;;;;;;19.84;54.13;102057.03;5052318;28;20028;-67
2023/06/08 01:57:42;;;;;;;0.10;0.10;;;;;;;19.97;53.45;102051.97;5051784;28;20092;-67
2023/06/08 02:00:11;;;;;;;0.10;0.10;;;;;;;20.38;52.52;102050.50;5052084;28;20516;-67
2023/06/08 02:02:37;;;;;;;0.10;0.10;;;;;;;19.91;53.86;102052.19;5052148;28;20043;-67
2023/06/08 02:05:04;;;;;;;0.20;0.20;;;;;;;20.19;52.73;102048.38;5051888;28;20469;-67
2023/06/08 02:07:29;;;;;;;0.20;0.20;;;;;;;20.24;52.39;102048.44;5051747;28;20024;-67
2023/06/08 02:09:55;;;;;;;0.10;0.10;;;;;;;19.94;54.04;102054.41;5052417;28;20048;-67
2023/06/08 02:12:20;;;;;;;0.20;0.20;;;;;;;19.94;53.92;102052.50;5051951;28;20362;-67
2023/06/08 02:14:46;;;;;;;0.10;0.10;;;;;;;20.37;52.32;102057.03;5051682;28;20477;-68
2023/06/08 02:17:13;;;;;;;0.10;0.10;;;;;;;19.46;55.55;102052.50;5051768;28;20037;-67
2023/06/08 02:19:39;;;;;;;0.10;0.10;;;;;;;20.02;53.97;102051.22;5051691;28;20106;-67
2023/06/08 02:22:04;;;;;;;0.20;0.20;;;;;;;18.94;56.77;102043.06;5051993;28;20029;-67
2023/06/08 02:24:30;;;;;;;0.03;0.03;;;;;;;20.15;53.49;102046.16;5051399;28;20079;-67
2023/06/08 02:26:55;;;;;;;0.10;0.10;;;;;;;19.73;54.61;102042.47;5051509;28;20711;-67
2023/06/08 02:29:21;;;;;;;0.20;0.20;;;;;;;20.34;53.02;102037.59;5051251;28;20060;-67
2023/06/08 02:31:46;;;;;;;0.10;0.10;;;;;;;20.01;53.66;102038.63;5040348;28;20076;-67
2023/06/08 02:34:12;;;;;;;0.10;0.10;;;;;;;20.28;52.30;102034.03;5046646;28;20028;-67
2023/06/08 02:36:39;;;;;;;0.10;0.10;;;;;;;20.39;51.97;102043.09;5034854;28;20494;-67
2023/06/08 02:39:05;;;;;;;0.10;0.10;;;;;;;20.20;52.80;102039.94;5051216;28;20043;-67
2023/06/08 02:41:31;;;;;;;0.10;0.10;;;;;;;20.53;51.45;102050.59;5042228;28;20038;-67
2023/06/08 02:43:56;;;;;;;0.10;0.10;;;;;;;20.82;50.69;102037.41;5043936;28;20044;-67
2023/06/08 02:46:22;;;;;;;0.00;0.00;;;;;;;20.54;50.84;102044.03;5036317;28;20034;-67
2023/06/08 02:48:49;;;;;;;0.10;0.10;;;;;;;20.38;51.94;102042.28;5048095;28;20124;-67
2023/06/08 02:51:16;;;;;;;0.10;0.10;;;;;;;20.76;51.03;102038.44;5038123;28;20127;-67
2023/06/08 02:53:42;;;;;;;0.10;0.10;;;;;;;20.46;51.87;102038.25;5040705;28;20405;-67
2023/06/08 02:56:07;;;;;;;0.10;0.10;;;;;;;20.49;51.64;102032.25;5044652;28;20040;-67
2023/06/08 02:58:33;;;;;;;0.10;0.10;;;;;;;20.01;53.25;102031.28;5049818;28;20032;-67
2023/06/08 03:01:00;;;;;;;0.10;0.10;;;;;;;19.75;53.45;102034.03;5036081;28;20029;-68
2023/06/08 03:03:27;;;;;;;0.10;0.10;;;;;;;20.16;52.39;102036.06;5042533;28;20041;-68
2023/06/08 03:05:59;;;;;;;0.10;0.10;;;;;;;20.16;52.19;102036.06;5041817;28;20037;-67
2023/06/08 03:08:28;;;;;;;0.10;0.10;;;;;;;19.73;52.62;102030.72;5034532;28;20521;-67
2023/06/08 03:10:54;;;;;;;0.10;0.10;;;;;;;20.47;51.50;102029.78;5018731;28;20033;-67
2023/06/08 03:13:21;;;;;;;0.13;0.13;;;;;;;19.25;55.34;102036.94;5043776;28;20120;-67
2023/06/08 03:15:47;;;;;;;0.20;0.20;;;;;;;19.13;55.44;102028.91;5034885;28;20044;-67
2023/06/08 03:18:12;;;;;;;0.10;0.10;;;;;;;20.02;52.80;102027.47;5045150;28;20036;-67
2023/06/08 03:20:40;;;;;;;0.10;0.10;;;;;;;19.82;53.63;102027.28;5034049;28;20034;-67
2023/06/08 03:23:06;;;;;;;0.10;0.10;;;;;;;19.69;53.33;102022.25;5045025;28;20029;-66
2023/06/08 03:25:31;;;;;;;0.10;0.10;;;;;;;20.19;51.44;102023.81;5039516;28;20020;-66
2023/06/08 03:27:57;;;;;;;0.10;0.10;;;;;;;20.19;51.95;102032.81;5038105;28;20037;-66
2023/06/08 03:30:22;;;;;;;0.10;0.10;;;;;;;20.13;52.38;102042.03;5046306;28;20049;-67
2023/06/08 03:32:48;;;;;;;0.10;0.10;;;;;;;20.30;51.26;102037.31;5033671;28;20025;-67
2023/06/08 03:35:15;;;;;;;0.10;0.10;;;;;;;20.30;51.37;102037.31;5043497;28;20033;-66
2023/06/08 03:37:40;;;;;;;0.10;0.10;;;;;;;19.57;54.18;102028.91;5040918;28;20025;-67
2023/06/08 03:40:06;;;;;;;0.15;0.15;;;;;;;19.68;54.25;102036.09;5050664;28;20352;-67
2023/06/08 03:42:32;;;;;;;0.10;0.10;;;;;;;20.17;52.66;102038.53;5034175;28;20033;-66
2023/06/08 03:44:58;;;;;;;0.10;0.10;;;;;;;20.18;52.06;102031.16;5061236;28;20030;-67
2023/06/08 03:47:23;;;;;;;0.20;0.20;;;;;;;19.91;52.86;102033.09;5038205;28;20496;-66
2023/06/08 03:49:49;;;;;;;0.20;0.20;;;;;;;19.56;54.02;102038.16;5038529;28;20037;-66
2023/06/08 03:52:14;;;;;;;0.10;0.10;;;;;;;19.85;53.25;102029.47;5045666;28;20037;-66
2023/06/08 03:54:40;;;;;;;0.10;0.10;;;;;;;20.07;52.41;102037.59;5033159;28;20086;-66
2023/06/08 03:57:06;;;;;;;0.10;0.10;;;;;;;20.38;51.24;102038.72;5049870;28;20086;-66
2023/06/08 03:59:31;;;;;;;0.10;0.10;;;;;;;20.28;51.24;102030.47;5040945;28;20033;-67
2023/06/08 04:01:57;;;;;;;0.10;0.10;;;;;;;19.82;53.39;102023.72;5031368;28;20025;-66
2023/06/08 04:04:23;;;;;;;0.10;0.10;;;;;;;19.72;52.86;102027.16;5033676;28;20021;-66
2023/06/08 04:06:51;;;;;;;0.10;0.10;;;;;;;20.05;52.18;102035.13;5032214;28;20453;-67
2023/06/08 04:09:16;;;;;;;0.10;0.10;;;;;;;20.05;51.91;102035.13;5036112;28;20115;-67
2023/06/08 04:11:41;;;;;;;0.10;0.10;;;;;;;20.49;50.86;102030.34;5024122;28;20494;-66
2023/06/08 04:14:07;;;;;;;0.10;0.10;;;;;;;20.19;51.63;102023.81;5031069;28;20087;-66
2023/06/08 04:16:32;;;;;;;0.15;0.15;;;;;;;20.55;50.81;102025.75;5035333;28;20033;-67
2023/06/08 04:18:58;;;;;;;0.10;0.10;;;;;;;20.25;51.69;102018.13;5049007;28;20028;-67
2023/06/08 04:21:25;;;;;;;0.15;0.15;;;;;;;19.23;54.51;102020.03;5041255;28;20095;-67
2023/06/08 04:23:51;;;;;;;0.20;0.20;;;;;;;19.34;54.38;102013.63;5041639;28;20033;-66
2023/06/08 04:26:16;;;;;;;0.20;0.20;;;;;;;19.17;53.92;102016.41;5048062;28;20494;-67
2023/06/08 04:28:42;;;;;;;0.17;0.17;;;;;;;19.21;54.46;102009.38;5049234;28;20037;-66
2023/06/08 04:31:08;;;;;;;0.17;0.17;;;;;;;19.55;53.63;102007.34;5046321;28;20045;-66
2023/06/08 04:33:33;;;;;;;0.10;0.10;;;;;;;19.64;54.16;101996.78;5043899;28;20041;-68
2023/06/08 04:35:58;;;;;;;0.10;0.10;;;;;;;20.08;52.20;102003.78;5046678;28;20448;-68
2023/06/08 04:38:25;;;;;;;0.10;0.10;;;;;;;20.20;51.71;102004.47;5047254;28;20041;-67
2023/06/08 04:40:53;;;;;;;0.10;0.10;;;;;;;19.98;52.07;102001.78;5033343;28;20030;-67
2023/06/08 04:43:20;;;;;;;0.10;0.10;;;;;;;19.96;51.66;101990.31;5040701;28;20036;-66
2023/06/08 04:45:51;;;;;;;0.00;0.00;;;;;;;20.15;51.64;101998.91;5043229;28;20124;-66
2023/06/08 04:48:17;;;;;;;0.10;0.10;;;;;;;20.15;51.94;102001.66;5055963;28;20561;-67
2023/06/08 04:50:45;;;;;;;0.10;0.10;;;;;;;20.04;51.70;102016.31;5061816;28;20120;-67
2023/06/08 04:53:12;;;;;;;0.10;0.10;;;;;;;20.13;52.07;102009.28;5058528;28;20619;-67
2023/06/08 04:55:37;;;;;;;0.10;0.10;;;;;;;20.05;51.82;102005.13;5062646;28;20017;-67
2023/06/08 04:58:03;;;;;;;0.15;0.15;;;;;;;20.10;52.13;102001.63;5062048;28;20052;-67
2023/06/08 05:00:28;;;;;;;0.10;0.10;;;;;;;20.41;50.90;102002.69;5063448;28;20033;-67
2023/06/08 05:02:54;;;;;;;0.10;0.10;;;;;;;20.24;51.69;102008.31;5062408;28;20045;-67
2023/06/08 05:05:19;;;;;;;0.17;0.17;;;;;;;20.40;51.28;102007.34;5062194;28;20056;-67
2023/06/08 05:07:44;;;;;;;0.10;0.10;;;;;;;20.31;51.76;102013.53;5060815;28;20052;-66
2023/06/08 05:10:10;;;;;;;0.10;0.10;;;;;;;19.89;52.83;102006.06;5053545;28;20032;-66
2023/06/08 05:12:35;;;;;;;0.10;0.10;;;;;;;19.81;53.43;102003.78;5064478;28;20032;-66
2023/06/08 05:15:02;;;;;;;0.20;0.20;;;;;;;19.77;53.27;102007.31;5048115;28;20022;-64
2023/06/08 05:17:28;;;;;;;0.10;0.10;;;;;;;20.14;51.92;102000.84;5048325;28;20040;-63
2023/06/08 05:19:53;;;;;;;0.10;0.10;;;;;;;20.29;51.49;102002.06;5048365;28;20037;-64
2023/06/08 05:22:19;;;;;;;0.10;0.10;;;;;;;19.48;53.36;101997.72;5052258;28;20025;-64
2023/06/08 05:24:44;;;;;;;0.10;0.10;;;;;;;19.50;53.45;101996.38;5045229;28;20040;-64
2023/06/08 05:27:09;;;;;;;0.10;0.10;;;;;;;19.63;54.26;101998.72;5053392;28;20504;-63
2023/06/08 05:29:35;;;;;;;0.15;0.15;;;;;;;19.61;54.05;102000.88;5050898;28;20052;-63
2023/06/08 05:32:00;;;;;;;0.10;0.10;;;;;;;18.95;56.34;102001.94;5052133;28;20063;-63
2023/06/08 05:34:26;;;;;;;0.20;0.20;;;;;;;19.08;55.81;102008.94;5055442;28;20024;-63
2023/06/08 05:36:52;;;;;;;0.10;0.10;;;;;;;19.25;55.99;102002.34;5062895;28;20017;-63
2023/06/08 05:39:17;;;;;;;0.10;0.10;;;;;;;19.97;52.87;102004.75;5061195;28;20033;-64
2023/06/08 05:41:43;;;;;;;0.20;0.20;;;;;;;18.59;57.20;101999.00;5063534;28;20036;-64
2023/06/08 05:44:08;;;;;;;0.10;0.10;;;;;;;19.89;53.13;102000.59;5059262;28;20044;-65
2023/06/08 05:46:33;;;;;;;0.15;0.15;;;;;;;19.53;54.84;102003.22;5034310;28;20033;-63
2023/06/08 05:48:59;;;;;;;0.10;0.10;;;;;;;19.75;53.44;101999.38;5052661;28;20397;-63
2023/06/08 05:51:24;;;;;;;0.10;0.10;;;;;;;19.50;54.60;102001.03;5051496;28;20037;-64
2023/06/08 05:53:50;;;;;;;0.10;0.10;;;;;;;19.84;53.76;101994.28;5047244;28;20087;-63
2023/06/08 05:56:15;;;;;;;0.10;0.10;;;;;;;19.67;54.01;101999.03;5047922;28;20047;-63
2023/06/08 05:58:40;;;;;;;0.10;0.10;;;;;;;19.64;54.38;101994.06;5059772;28;20032;-64
2023/06/08 06:01:07;;;;;;;0.10;0.10;;;;;;;20.39;51.66;101999.41;5059188;28;20031;-63
2023/06/08 06:03:32;;;;;;;0.10;0.10;;;;;;;20.58;50.65;102000.66;5044545;28;20040;-63
2023/06/08 06:05:58;;;;;;;0.10;0.10;;;;;;;20.95;49.18;101996.75;5058014;28;20423;-63
2023/06/08 06:08:23;;;;;;;0.10;0.10;;;;;;;20.65;50.33;101993.03;5042613;28;20139;-62
2023/06/08 06:10:49;;;;;;;0.10;0.10;;;;;;;20.34;51.19;101985.72;5056793;28;20037;-63
2023/06/08 06:13:14;;;;;;;0.10;0.10;;;;;;;21.02;49.64;101987.53;5047591;28;20381;-74
2023/06/08 06:15:40;;;;;;;0.10;0.10;;;;;;;20.61;50.32;101992.75;5047001;28;20036;-75
2023/06/08 06:18:05;;;;;;;0.10;0.10;;;;;;;18.92;56.14;101993.47;5051125;28;20040;-72
2023/06/08 06:20:31;;;;;;;0.10;0.10;;;;;;;19.67;53.08;101982.66;5050923;28;20028;-72
2023/06/08 06:22:56;;;;;;;0.10;0.10;;;;;;;20.08;52.74;101987.41;5029559;28;20330;-73
2023/06/08 06:25:21;;;;;;;0.10;0.10;;;;;;;20.04;52.88;101991.72;5047562;28;20021;-73
2023/06/08 06:27:47;;;;;;;0.10;0.10;;;;;;;20.85;50.78;101988.50;5046846;28;20068;-72
2023/06/08 06:30:13;;;;;;;0.20;0.20;;;;;;;20.84;50.46;101992.34;5036922;28;20128;-74
2023/06/08 06:32:38;;;;;;;0.10;0.10;;;;;;;21.69;47.90;101980.09;5026561;28;20040;-72
2023/06/08 06:35:04;;;;;;;0.17;0.17;;;;;;;21.69;47.25;101982.81;5031914;28;20056;-71
2023/06/08 06:37:34;;;;;;;0.15;0.15;;;;;;;21.88;46.75;101977.69;5042129;28;20609;-72
2023/06/08 06:40:01;;;;;;;0.10;0.10;;;;;;;22.21;46.17;101969.72;5022383;28;20025;-74
2023/06/08 06:42:26;;;;;;;0.10;0.10;;;;;;;21.78;46.42;101978.44;5030164;28;20435;-73
2023/06/08 06:44:52;;;;;;;0.10;0.10;;;;;;;19.83;52.22;101987.19;5024414;28;20388;-72
2023/06/08 06:47:17;;;;;;;0.10;0.10;;;;;;;19.48;53.81;101976.72;5043682;28;20036;-71
2023/06/08 06:49:43;;;;;;;0.10;0.10;;;;;;;20.32;51.52;101982.44;5041830;28;20029;-70
2023/06/08 06:52:08;;;;;;;0.10;0.10;;;;;;;21.63;48.48;101983.91;5037305;28;20025;-72
2023/06/08 06:54:33;;;;;;;0.10;0.10;;;;;;;22.38;46.20;101981.22;5047005;28;20037;-73
2023/06/08 06:56:59;;;;;;;0.10;0.10;;;;;;;21.23;49.48;101981.88;5030873;28;20033;-74
2023/06/08 06:59:24;;;;;;;0.10;0.10;;;;;;;22.45;45.81;101989.97;5039038;28;20059;-74
2023/06/08 07:01:50;;;;;;;0.10;0.10;;;;;;;22.54;45.58;101990.25;5039219;28;20033;-73
2023/06/08 07:04:15;;;;;;;0.10;0.10;;;;;;;22.54;45.39;101992.97;5041655;28;20029;-73
2023/06/08 07:06:42;;;;;;;0.10;0.10;;;;;;;23.17;44.03;101989.53;5026766;28;20444;-73
2023/06/08 07:09:09;;;;;;;0.10;0.10;;;;;;;22.21;46.27;101994.38;5024074;28;20036;-73
2023/06/08 07:11:35;;;;;;;0.10;0.10;;;;;;;22.08;46.61;101986.72;5021398;28;20087;-73
2023/06/08 07:14:00;;;;;;;0.10;0.10;;;;;;;23.13;44.32;101996.69;5029629;28;20033;-74
2023/06/08 07:16:26;;;;;;;0.10;0.10;;;;;;;23.29;43.25;102000.97;5026041;28;20017;-72
2023/06/08 07:18:51;;;;;;;0.10;0.10;;;;;;;22.79;44.08;102000.34;5022707;28;20021;-74
2023/06/08 07:21:19;;;;;;;0.10;0.10;;;;;;;22.99;43.28;102005.78;5021761;28;20036;-73
2023/06/08 07:23:45;;;;;;;0.10;0.10;;;;;;;21.58;47.02;101997.59;5023336;28;20414;-73
2023/06/08 07:26:11;;;;;;;0.10;0.10;;;;;;;22.48;45.65;101991.34;5006357;28;20041;-73
2023/06/08 07:28:37;;;;;;;0.10;0.10;;;;;;;21.65;47.01;101992.66;5024296;28;20113;-72
2023/06/08 07:31:03;;;;;;;0.20;0.20;;;;;;;22.99;44.21;101989.31;5065555;28;20138;-73
2023/06/08 07:33:28;;;;;;;0.00;0.00;;;;;;;23.15;43.84;101999.13;5050486;28;20033;-73
2023/06/08 07:35:54;;;;;;;0.10;0.10;;;;;;;23.68;42.62;101994.78;5050596;28;20128;-73
2023/06/08 07:38:19;;;;;;;0.10;0.10;;;;;;;23.43;42.25;101993.81;5050349;28;20037;-73
2023/06/08 07:40:45;;;;;;;0.10;0.10;;;;;;;23.77;42.16;101996.63;5050303;28;20036;-74
2023/06/08 07:43:10;;;;;;;0.10;0.10;;;;;;;24.02;42.16;102001.13;5050808;28;20032;-73
2023/06/08 07:45:35;;;;;;;0.10;0.10;;;;;;;24.02;41.88;101998.38;5050285;28;20045;-73
2023/06/08 07:48:01;;;;;;;0.00;0.00;;;;;;;23.51;42.96;101992.38;5049947;28;20511;-76
2023/06/08 07:50:26;;;;;;;0.10;0.10;;;;;;;23.85;41.69;101987.78;5050130;28;20025;-72
2023/06/08 07:52:52;;;;;;;0.10;0.10;;;;;;;24.17;41.17;101990.88;5049696;28;20033;-73
2023/06/08 07:55:17;;;;;;;0.10;0.10;;;;;;;23.36;43.48;101987.00;5050421;28;20480;-64
2023/06/08 07:57:44;;;;;;;0.00;0.00;;;;;;;24.38;41.42;101996.97;5049886;28;20401;-66
2023/06/08 08:00:10;;;;;;;0.10;0.10;;;;;;;24.01;41.25;101978.31;5049989;28;20049;-65
2023/06/08 08:02:35;;;;;;;0.10;0.10;;;;;;;24.45;40.53;101986.47;5049625;28;20119;-66
2023/06/08 08:05:02;;;;;;;0.10;0.10;;;;;;;22.36;45.46;101988.91;5048630;28;20128;-65
2023/06/08 08:07:27;;;;;;;0.10;0.10;;;;;;;21.95;46.71;101980.97;5048784;28;20025;-65
2023/06/08 08:09:53;;;;;;;0.10;0.10;;;;;;;23.87;42.99;101984.75;5049947;28;20032;-65
2023/06/08 08:12:18;;;;;;;0.10;0.10;;;;;;;24.33;40.94;101986.03;5049925;28;20033;-65
2023/06/08 08:14:44;;;;;;;0.10;0.10;;;;;;;24.33;40.88;101984.09;5049971;28;20044;-64
2023/06/08 08:17:09;;;;;;;0.10;0.10;;;;;;;23.91;40.80;101989.38;5049857;28;20469;-65
2023/06/08 08:19:34;;;;;;;0.45;0.10;;;;;;;23.61;42.14;101977.78;5049880;28;20041;-66
2023/06/08 08:22:00;;;;;;;0.10;0.10;;;;;;;24.95;39.52;101980.44;5050855;28;20493;-66
2023/06/08 08:24:25;;;;;;;0.10;0.10;;;;;;;24.61;40.23;101978.91;5049711;28;20168;-66
2023/06/08 08:26:57;;;;;;;0.10;0.10;;;;;;;24.99;39.32;101978.75;5031351;28;20037;-65
2023/06/08 08:29:22;;;;;;;0.10;0.10;;;;;;;23.06;42.95;101987.91;5047635;28;20064;-64
2023/06/08 08:31:48;;;;;;;0.10;0.10;;;;;;;23.74;42.97;101982.66;5049813;28;20352;-65
2023/06/08 08:34:13;;;;;;;0.10;0.10;;;;;;;23.39;44.38;101984.50;5048014;28;20087;-65
2023/06/08 08:36:38;;;;;;;0.10;0.10;;;;;;;23.87;42.84;101982.81;5047896;28;20524;-65
2023/06/08 08:39:04;;;;;;;0.10;0.10;;;;;;;25.42;39.62;101990.59;5043399;28;20061;-65
2023/06/08 08:41:32;;;;;;;0.10;0.10;;;;;;;25.52;37.91;101984.94;5047137;28;20087;-65
2023/06/08 08:44:03;;;;;;;0.00;0.00;;;;;;;25.84;37.75;101989.69;5046610;28;20029;-66
2023/06/08 08:46:34;;;;;;;0.00;0.00;;;;;;;24.28;41.09;101988.81;5043866;28;20093;-66
2023/06/08 08:49:04;;;;;;;0.00;0.00;;;;;;;25.45;39.18;101981.75;5046666;28;20049;-66
2023/06/08 08:51:32;;;;;;;0.10;0.10;;;;;;;26.28;37.07;101984.56;5046659;28;20029;-66
2023/06/08 08:54:00;;;;;;;0.10;0.10;;;;;;;26.18;37.07;101976.47;5046153;28;20064;-66
2023/06/08 08:56:26;;;;;;;0.10;0.10;;;;;;;25.44;38.29;101973.78;5046047;28;20035;-66
2023/06/08 08:58:52;;;;;;;0.00;0.00;;;;;;;24.77;39.17;101966.63;5046544;28;20033;-64
2023/06/08 09:01:18;;;;;;;0.00;0.00;;;;;;;25.86;36.99;101970.94;5046517;28;20029;-65
2023/06/08 09:03:47;;;;;;;0.00;0.00;;;;;;;26.74;35.87;101960.59;5047723;28;20045;-65
2023/06/08 09:06:13;;;;;;;0.00;0.00;;;;;;;26.51;36.66;101972.59;5048970;28;20377;-67
2023/06/08 09:08:39;;;;;;;0.00;0.00;;;;;;;26.70;36.20;101962.31;5049101;28;20059;-66
2023/06/08 09:11:06;;;;;;;0.00;0.00;;;;;;;25.23;39.10;101974.03;5049584;28;20605;-65
2023/06/08 09:13:33;;;;;;;0.00;0.00;;;;;;;24.70;40.15;101972.47;5050414;28;20522;-66
2023/06/08 09:16:16;;;;;;;0.00;0.00;;;;;;;26.42;36.85;101957.84;5050274;28;20021;-65
2023/06/08 09:18:43;;;;;;;0.00;0.00;;;;;;;26.53;36.24;101969.53;5050597;28;20054;-67
2023/06/08 09:21:21;;;;;;;0.05;0.05;;;;;;;26.50;36.45;101968.19;5049369;28;20074;-67
2023/06/08 09:24:16;;;;;;;0.00;0.00;;;;;;;27.10;34.58;101968.94;5049316;28;20516;-67
2023/06/08 09:26:49;;;;;;;0.00;0.00;;;;;;;26.71;35.35;101974.97;5049617;28;20767;-65
2023/06/08 09:29:44;;;;;;;0.00;0.00;;;;;;;26.69;36.45;101963.41;5049716;28;20036;-66
2023/06/08 09:32:17;;;;;;;0.00;0.00;;;;;;;26.64;37.10;101968.19;5044375;28;20053;-66
2023/06/08 09:35:01;;;;;;;0.00;0.00;;;;;;;26.45;37.06;101968.28;5040651;28;20061;-65
2023/06/08 09:37:36;;;;;;;0.00;0.00;;;;;;;26.04;36.10;101959.88;5044030;28;20223;-64
2023/06/08 09:40:08;;;;;;;0.20;0.10;;;;;;;27.11;34.83;101965.06;5033311;28;20052;-65
2023/06/08 09:42:44;;;;;;;0.00;0.00;;;;;;;27.36;34.63;101964.53;5042307;28;20120;-65
2023/06/08 09:45:14;;;;;;;0.00;0.00;;;;;;;27.62;34.69;101964.75;5041550;28;20052;-65
2023/06/08 09:47:40;;;;;;;0.03;0.03;;;;;;;27.74;34.22;101954.78;5032871;28;20120;-65
2023/06/08 09:50:08;;;;;;;0.00;0.00;;;;;;;26.82;34.91;101950.78;5045810;28;20487;-65
2023/06/08 09:52:35;;;;;;;0.00;0.00;;;;;;;27.64;33.86;101963.31;5036556;28;20052;-66
2023/06/08 09:55:02;;;;;;;0.00;0.00;;;;;;;27.81;33.23;101954.38;5049307;28;20067;-65
2023/06/08 09:57:32;;;;;;;0.00;0.00;;;;;;;28.24;32.58;101952.75;5047162;28;20051;-65
2023/06/08 10:00:17;;;;;;;;;;;;;;;28.60;32.22;101941.53;5046004;28;20094;-65
2023/06/08 10:03:01;;;;;;;0.00;0.00;;;;;;;26.94;35.57;101940.88;5031429;28;20342;-65
2023/06/08 10:05:33;;;;;;;0.00;0.00;;;;;;;26.83;35.93;101942.19;5033343;28;20148;-65
2023/06/08 10:07:59;;;;;;;0.00;0.00;;;;;;;27.62;33.90;101937.97;5045562;28;20025;-67
2023/06/08 10:10:38;;;;;;;0.00;0.00;;;;;;;28.50;32.36;101930.75;5034919;28;20045;-65
2023/06/08 10:13:09;;;;;;;0.00;0.00;;;;;;;29.08;31.35;101936.81;5036716;28;20843;-65
2023/06/08 10:15:35;;;;;;;0.00;0.00;;;;;;;29.47;29.60;101942.25;5027866;28;20107;-64
2023/06/08 10:18:02;;;;;;;0.00;0.00;;;;;;;28.43;30.64;101941.44;5044798;28;20693;-72
2023/06/08 10:20:29;;;;;;;0.00;0.00;;;;;;;28.20;31.92;101951.72;5034674;28;20037;-70
2023/06/08 10:22:59;;;;;;;0.00;0.00;;;;;;;28.71;31.16;101936.53;5037685;28;20044;-74
2023/06/08 10:25:28;;;;;;;0.00;0.00;;;;;;;28.15;32.29;101939.97;5009972;28;20469;-72
2023/06/08 10:27:53;;;;;;;0.00;0.00;;;;;;;29.18;30.96;101924.63;5044003;28;20029;-71
2023/06/08 10:30:29;;;;;;;0.00;0.00;;;;;;;29.81;30.07;101933.16;5042232;28;20064;-70
2023/06/08 10:33:06;;;;;;;0.00;0.00;;;;;;;28.19;31.63;101930.72;5038199;28;20563;-71
2023/06/08 10:35:31;;;;;;;0.08;0.00;;;;;;;28.66;31.34;101920.09;5031156;28;20664;-72
2023/06/08 10:38:10;;;;;;;0.00;0.00;;;;;;;28.53;31.68;101924.56;5044834;28;20033;-72
2023/06/08 10:40:47;;;;;;;0.00;0.00;;;;;;;27.72;32.37;101915.63;5036230;28;20056;-71
2023/06/08 10:43:13;;;;;;;0.00;0.00;;;;;;;28.42;31.44;101915.72;5028685;28;20034;-71
2023/06/08 10:45:43;;;;;;;0.00;0.00;;;;;;;29.56;30.03;101903.47;5031477;28;20047;-72
2023/06/08 10:48:09;;;;;;;;;;;;;;;29.74;29.93;101905.09;5032178;28;20067;-73
2023/06/08 10:50:39;;;;;;;0.00;0.00;;;;;;;27.55;32.28;101907.22;5013636;28;19936;-73
2023/06/08 10:53:04;;;;;;;0.00;0.00;;;;;;;28.41;31.48;101908.56;5030525;28;20033;-73
2023/06/08 10:55:30;;;;;;;0.00;0.00;;;;;;;29.02;29.85;101906.81;5039052;28;20108;-67
2023/06/08 10:58:06;;;;;;;0.00;0.00;;;;;;;29.89;27.82;101899.06;5045849;28;20060;-68
2023/06/08 11:00:32;;;;;;;0.00;0.00;;;;;;;29.35;29.26;101900.53;5030963;28;20037;-68
2023/06/08 11:03:04;;;;;;;0.00;0.00;;;;;;;29.02;29.84;101896.56;5031261;28;20041;-73
2023/06/08 11:05:34;;;;;;;0.00;0.00;;;;;;;29.91;28.36;101895.94;5031026;28;20072;-73
2023/06/08 11:08:00;;;;;;;0.00;0.00;;;;;;;30.15;27.89;101893.44;5028946;28;20512;-72
2023/06/08 11:10:26;;;;;;;0.00;0.00;;;;;;;30.38;27.97;101894.03;5028242;28;20029;-71
2023/06/08 11:12:51;;;;;;;0.00;0.00;;;;;;;30.06;28.72;101889.88;5030932;28;20140;-72
2023/06/08 11:15:18;;;;;;;0.00;0.00;;;;;;;29.67;30.10;101888.13;5027881;28;20033;-71
2023/06/08 11:17:58;;;;;;;0.00;0.00;;;;;;;30.09;29.96;101881.69;5030798;28;20030;-72
2023/06/08 11:20:24;;;;;;;0.00;0.00;;;;;;;30.78;28.65;101881.44;5030878;28;20173;-72
2023/06/08 11:22:50;;;;;;;0.00;0.00;;;;;;;29.71;30.53;101882.75;5030705;28;20030;-72
2023/06/08 11:25:25;;;;;;;0.00;0.00;;;;;;;29.55;30.64;101878.84;5030752;28;20048;-73
2023/06/08 11:27:53;;;;;;;0.00;0.00;;;;;;;30.91;28.32;101881.22;5030393;28;20571;-72